sensor_id;sensor_type;location;lat;lon;timestamp;temperature;humidity
12264;DHT22;6194;49.010;8.414;2023-08-24T00:01:15;22.00;99.90
12264;DHT22;6194;49.010;8.414;2023-08-24T00:03:45;22.00;99.90
12264;DHT22;6194;49.010;8.414;2023-08-24T00:06:11;22.00;99.90
12264;DHT22;6194;49.010;8.414;2023-08-24T00:08:37;21.90;99.90
12264;DHT22;6194;49.010;8.414;2023-08-24T00:11:03;21.70;99.90
12264;DHT22;6194;49.010;8.414;2023-08-24T00:13:29;21.70;99.90
12264;DHT22;6194;49.010;8.414;2023-08-24T00:15:55;21.60;99.90
12264;DHT22;6194;49.010;8.414;2023-08-24T00:18:21;21.60;99.90
12264;DHT22;6194;49.010;8.414;2023-08-24T00:20:48;21.60;99.90
12264;DHT22;6194;49.010;8.414;2023-08-24T00:23:14;21.70;99.90
12264;DHT22;6194;49.010;8.414;2023-08-24T00:25:39;21.70;99.90
12264;DHT22;6194;49.010;8.414;2023-08-24T00:28:06;21.80;99.90
12264;DHT22;6194;49.010;8.414;2023-08-24T00:30:32;21.80;99.90
12264;DHT22;6194;49.010;8.414;2023-08-24T00:33:01;21.80;99.90
12264;DHT22;6194;49.010;8.414;2023-08-24T00:35:26;21.90;99.90
12264;DHT22;6194;49.010;8.414;2023-08-24T00:37:52;21.90;99.90
12264;DHT22;6194;49.010;8.414;2023-08-24T00:40:18;21.90;99.90
12264;DHT22;6194;49.010;8.414;2023-08-24T00:42:44;22.10;99.90
12264;DHT22;6194;49.010;8.414;2023-08-24T00:45:13;21.80;99.90
12264;DHT22;6194;49.010;8.414;2023-08-24T00:47:47;22.10;99.90
12264;DHT22;6194;49.010;8.414;2023-08-24T00:50:12;21.70;99.90
12264;DHT22;6194;49.010;8.414;2023-08-24T00:52:41;21.70;99.90
12264;DHT22;6194;49.010;8.414;2023-08-24T00:55:08;21.70;99.90
12264;DHT22;6194;49.010;8.414;2023-08-24T00:57:34;21.70;99.90
12264;DHT22;6194;49.010;8.414;2023-08-24T01:00:03;21.70;99.90
12264;DHT22;6194;49.010;8.414;2023-08-24T01:02:31;21.60;99.90
12264;DHT22;6194;49.010;8.414;2023-08-24T01:04:58;21.60;99.90
12264;DHT22;6194;49.010;8.414;2023-08-24T01:07:23;21.60;99.90
12264;DHT22;6194;49.010;8.414;2023-08-24T01:09:50;21.50;99.90
12264;DHT22;6194;49.010;8.414;2023-08-24T01:12:28;21.40;99.90
12264;DHT22;6194;49.010;8.414;2023-08-24T01:15:09;21.30;99.90
12264;DHT22;6194;49.010;8.414;2023-08-24T01:17:39;21.20;99.90
12264;DHT22;6194;49.010;8.414;2023-08-24T01:20:08;21.10;99.90
12264;DHT22;6194;49.010;8.414;2023-08-24T01:23:09;21.00;99.90
12264;DHT22;6194;49.010;8.414;2023-08-24T01:25:46;21.00;99.90
12264;DHT22;6194;49.010;8.414;2023-08-24T01:28:15;21.00;99.90
12264;DHT22;6194;49.010;8.414;2023-08-24T01:30:43;21.10;99.90
12264;DHT22;6194;49.010;8.414;2023-08-24T01:33:09;21.10;99.90
12264;DHT22;6194;49.010;8.414;2023-08-24T01:35:38;21.20;99.90
12264;DHT22;6194;49.010;8.414;2023-08-24T01:38:04;21.30;99.90
12264;DHT22;6194;49.010;8.414;2023-08-24T01:43:21;21.40;99.90
12264;DHT22;6194;49.010;8.414;2023-08-24T01:45:52;21.40;99.90
12264;DHT22;6194;49.010;8.414;2023-08-24T01:48:19;21.30;99.90
12264;DHT22;6194;49.010;8.414;2023-08-24T01:50:45;21.30;99.90
12264;DHT22;6194;49.010;8.414;2023-08-24T01:53:11;21.20;99.90
12264;DHT22;6194;49.010;8.414;2023-08-24T01:55:37;21.10;99.90
12264;DHT22;6194;49.010;8.414;2023-08-24T01:58:03;21.30;99.90
12264;DHT22;6194;49.010;8.414;2023-08-24T02:00:28;20.90;99.90
12264;DHT22;6194;49.010;8.414;2023-08-24T02:02:54;20.90;99.90
12264;DHT22;6194;49.010;8.414;2023-08-24T02:05:19;20.90;99.90
12264;DHT22;6194;49.010;8.414;2023-08-24T02:07:45;20.90;99.90
12264;DHT22;6194;49.010;8.414;2023-08-24T02:10:11;21.10;99.90
12264;DHT22;6194;49.010;8.414;2023-08-24T02:12:36;20.90;99.90
12264;DHT22;6194;49.010;8.414;2023-08-24T02:15:02;20.90;99.90
12264;DHT22;6194;49.010;8.414;2023-08-24T02:17:28;20.90;99.90
12264;DHT22;6194;49.010;8.414;2023-08-24T02:19:55;20.90;99.90
12264;DHT22;6194;49.010;8.414;2023-08-24T02:22:20;20.90;99.90
12264;DHT22;6194;49.010;8.414;2023-08-24T02:24:46;20.90;99.90
12264;DHT22;6194;49.010;8.414;2023-08-24T02:27:12;20.90;99.90
12264;DHT22;6194;49.010;8.414;2023-08-24T02:29:37;20.80;99.90
12264;DHT22;6194;49.010;8.414;2023-08-24T02:32:04;20.80;99.90
12264;DHT22;6194;49.010;8.414;2023-08-24T02:34:30;20.80;99.90
12264;DHT22;6194;49.010;8.414;2023-08-24T02:36:56;20.70;99.90
12264;DHT22;6194;49.010;8.414;2023-08-24T02:39:22;20.80;99.90
12264;DHT22;6194;49.010;8.414;2023-08-24T02:41:48;20.80;99.90
12264;DHT22;6194;49.010;8.414;2023-08-24T02:44:14;20.70;99.90
12264;DHT22;6194;49.010;8.414;2023-08-24T02:46:39;20.80;99.90
12264;DHT22;6194;49.010;8.414;2023-08-24T02:49:05;20.80;99.90
12264;DHT22;6194;49.010;8.414;2023-08-24T02:51:30;20.70;99.90
12264;DHT22;6194;49.010;8.414;2023-08-24T02:53:57;20.60;99.90
12264;DHT22;6194;49.010;8.414;2023-08-24T02:56:23;20.60;99.90
12264;DHT22;6194;49.010;8.414;2023-08-24T02:58:48;20.50;99.90
12264;DHT22;6194;49.010;8.414;2023-08-24T03:01:14;20.60;99.90
12264;DHT22;6194;49.010;8.414;2023-08-24T03:03:40;20.70;99.90
12264;DHT22;6194;49.010;8.414;2023-08-24T03:06:06;20.60;99.90
12264;DHT22;6194;49.010;8.414;2023-08-24T03:08:33;20.60;99.90
12264;DHT22;6194;49.010;8.414;2023-08-24T03:11:00;20.60;99.90
12264;DHT22;6194;49.010;8.414;2023-08-24T03:13:27;20.60;99.90
12264;DHT22;6194;49.010;8.414;2023-08-24T03:15:53;20.60;99.90
12264;DHT22;6194;49.010;8.414;2023-08-24T03:18:20;20.60;99.90
12264;DHT22;6194;49.010;8.414;2023-08-24T03:20:47;20.70;99.90
12264;DHT22;6194;49.010;8.414;2023-08-24T03:23:12;20.70;99.90
12264;DHT22;6194;49.010;8.414;2023-08-24T03:25:39;20.70;99.90
12264;DHT22;6194;49.010;8.414;2023-08-24T03:28:06;20.60;99.90
12264;DHT22;6194;49.010;8.414;2023-08-24T03:30:37;20.60;99.90
12264;DHT22;6194;49.010;8.414;2023-08-24T03:33:03;20.60;99.90
12264;DHT22;6194;49.010;8.414;2023-08-24T03:35:31;20.60;99.90
12264;DHT22;6194;49.010;8.414;2023-08-24T03:37:57;20.60;99.90
12264;DHT22;6194;49.010;8.414;2023-08-24T03:40:22;20.60;99.90
12264;DHT22;6194;49.010;8.414;2023-08-24T03:42:48;20.50;99.90
12264;DHT22;6194;49.010;8.414;2023-08-24T03:45:13;20.50;99.90
12264;DHT22;6194;49.010;8.414;2023-08-24T03:47:39;20.50;99.90
12264;DHT22;6194;49.010;8.414;2023-08-24T03:50:05;20.50;99.90
12264;DHT22;6194;49.010;8.414;2023-08-24T03:52:31;20.50;99.90
12264;DHT22;6194;49.010;8.414;2023-08-24T03:54:57;20.50;99.90
12264;DHT22;6194;49.010;8.414;2023-08-24T03:57:22;20.50;99.90
12264;DHT22;6194;49.010;8.414;2023-08-24T03:59:48;20.60;99.90
12264;DHT22;6194;49.010;8.414;2023-08-24T04:02:14;20.70;99.90
12264;DHT22;6194;49.010;8.414;2023-08-24T04:04:40;20.70;99.90
12264;DHT22;6194;49.010;8.414;2023-08-24T04:07:05;20.70;99.90
12264;DHT22;6194;49.010;8.414;2023-08-24T04:09:31;20.70;99.90
12264;DHT22;6194;49.010;8.414;2023-08-24T04:11:56;20.70;99.90
12264;DHT22;6194;49.010;8.414;2023-08-24T04:14:22;20.60;99.90
12264;DHT22;6194;49.010;8.414;2023-08-24T04:16:48;20.70;99.90
12264;DHT22;6194;49.010;8.414;2023-08-24T04:19:13;20.70;99.90
12264;DHT22;6194;49.010;8.414;2023-08-24T04:21:39;20.70;99.90
12264;DHT22;6194;49.010;8.414;2023-08-24T04:24:04;20.80;99.90
12264;DHT22;6194;49.010;8.414;2023-08-24T04:26:30;20.80;99.90
12264;DHT22;6194;49.010;8.414;2023-08-24T04:28:56;20.80;99.90
12264;DHT22;6194;49.010;8.414;2023-08-24T04:31:22;20.80;99.90
12264;DHT22;6194;49.010;8.414;2023-08-24T04:33:47;20.80;99.90
12264;DHT22;6194;49.010;8.414;2023-08-24T04:36:13;20.80;99.90
12264;DHT22;6194;49.010;8.414;2023-08-24T04:38:38;20.90;99.90
12264;DHT22;6194;49.010;8.414;2023-08-24T04:41:08;20.90;99.90
12264;DHT22;6194;49.010;8.414;2023-08-24T04:43:33;20.90;99.90
12264;DHT22;6194;49.010;8.414;2023-08-24T04:45:59;20.90;99.90
12264;DHT22;6194;49.010;8.414;2023-08-24T04:48:25;20.90;99.90
12264;DHT22;6194;49.010;8.414;2023-08-24T04:50:52;20.90;99.90
12264;DHT22;6194;49.010;8.414;2023-08-24T04:53:22;20.90;99.90
12264;DHT22;6194;49.010;8.414;2023-08-24T04:55:48;20.90;99.90
12264;DHT22;6194;49.010;8.414;2023-08-24T04:58:14;20.90;99.90
12264;DHT22;6194;49.010;8.414;2023-08-24T05:00:39;20.90;99.90
12264;DHT22;6194;49.010;8.414;2023-08-24T05:03:05;20.90;99.90
12264;DHT22;6194;49.010;8.414;2023-08-24T05:05:32;21.00;99.90
12264;DHT22;6194;49.010;8.414;2023-08-24T05:07:58;21.10;99.90
12264;DHT22;6194;49.010;8.414;2023-08-24T05:10:24;21.10;99.90
12264;DHT22;6194;49.010;8.414;2023-08-24T05:12:50;21.20;99.90
12264;DHT22;6194;49.010;8.414;2023-08-24T05:15:16;21.30;99.90
12264;DHT22;6194;49.010;8.414;2023-08-24T05:17:41;21.40;99.90
12264;DHT22;6194;49.010;8.414;2023-08-24T05:20:08;21.60;99.90
12264;DHT22;6194;49.010;8.414;2023-08-24T05:22:36;21.70;99.90
12264;DHT22;6194;49.010;8.414;2023-08-24T05:25:02;21.90;99.90
12264;DHT22;6194;49.010;8.414;2023-08-24T05:27:27;22.20;99.90
12264;DHT22;6194;49.010;8.414;2023-08-24T05:29:53;22.40;99.90
12264;DHT22;6194;49.010;8.414;2023-08-24T05:32:18;22.60;99.90
12264;DHT22;6194;49.010;8.414;2023-08-24T05:34:45;22.60;99.90
12264;DHT22;6194;49.010;8.414;2023-08-24T05:37:11;22.60;99.90
12264;DHT22;6194;49.010;8.414;2023-08-24T05:39:37;22.70;99.90
12264;DHT22;6194;49.010;8.414;2023-08-24T05:42:02;22.70;99.90
12264;DHT22;6194;49.010;8.414;2023-08-24T05:44:28;22.50;99.90
12264;DHT22;6194;49.010;8.414;2023-08-24T05:46:53;22.30;99.90
12264;DHT22;6194;49.010;8.414;2023-08-24T05:49:19;22.20;99.90
12264;DHT22;6194;49.010;8.414;2023-08-24T05:51:44;22.20;99.90
12264;DHT22;6194;49.010;8.414;2023-08-24T05:54:10;22.10;99.90
12264;DHT22;6194;49.010;8.414;2023-08-24T05:56:36;22.10;99.90
12264;DHT22;6194;49.010;8.414;2023-08-24T05:59:01;22.10;99.90
12264;DHT22;6194;49.010;8.414;2023-08-24T06:01:27;22.00;99.90
12264;DHT22;6194;49.010;8.414;2023-08-24T06:03:52;22.00;99.90
12264;DHT22;6194;49.010;8.414;2023-08-24T06:06:18;21.90;99.90
12264;DHT22;6194;49.010;8.414;2023-08-24T06:08:44;21.90;99.90
12264;DHT22;6194;49.010;8.414;2023-08-24T06:11:09;21.80;99.90
12264;DHT22;6194;49.010;8.414;2023-08-24T06:13:35;21.80;99.90
12264;DHT22;6194;49.010;8.414;2023-08-24T06:16:01;21.30;99.90
12264;DHT22;6194;49.010;8.414;2023-08-24T06:18:27;21.20;99.90
12264;DHT22;6194;49.010;8.414;2023-08-24T06:20:53;21.00;99.90
12264;DHT22;6194;49.010;8.414;2023-08-24T06:23:19;20.70;99.90
12264;DHT22;6194;49.010;8.414;2023-08-24T06:25:45;21.00;99.90
12264;DHT22;6194;49.010;8.414;2023-08-24T06:28:12;21.30;99.90
12264;DHT22;6194;49.010;8.414;2023-08-24T06:30:41;21.40;99.90
12264;DHT22;6194;49.010;8.414;2023-08-24T06:33:08;21.50;99.90
12264;DHT22;6194;49.010;8.414;2023-08-24T06:35:36;21.50;99.90
12264;DHT22;6194;49.010;8.414;2023-08-24T06:38:03;21.60;99.90
12264;DHT22;6194;49.010;8.414;2023-08-24T06:40:29;21.70;99.90
12264;DHT22;6194;49.010;8.414;2023-08-24T06:42:58;21.90;99.90
12264;DHT22;6194;49.010;8.414;2023-08-24T06:45:24;22.00;99.90
12264;DHT22;6194;49.010;8.414;2023-08-24T06:47:49;22.10;99.90
12264;DHT22;6194;49.010;8.414;2023-08-24T06:50:16;22.00;99.90
12264;DHT22;6194;49.010;8.414;2023-08-24T06:52:42;22.00;99.90
12264;DHT22;6194;49.010;8.414;2023-08-24T06:55:11;22.00;99.90
12264;DHT22;6194;49.010;8.414;2023-08-24T06:57:38;22.00;99.90
12264;DHT22;6194;49.010;8.414;2023-08-24T07:00:03;22.00;99.90
12264;DHT22;6194;49.010;8.414;2023-08-24T07:02:35;22.00;99.90
12264;DHT22;6194;49.010;8.414;2023-08-24T07:05:02;22.40;99.90
12264;DHT22;6194;49.010;8.414;2023-08-24T07:07:30;22.40;99.90
12264;DHT22;6194;49.010;8.414;2023-08-24T07:09:55;22.50;99.90
12264;DHT22;6194;49.010;8.414;2023-08-24T07:12:21;22.50;99.90
12264;DHT22;6194;49.010;8.414;2023-08-24T07:14:47;22.60;99.90
12264;DHT22;6194;49.010;8.414;2023-08-24T07:17:12;22.80;99.90
12264;DHT22;6194;49.010;8.414;2023-08-24T07:19:38;22.90;99.90
12264;DHT22;6194;49.010;8.414;2023-08-24T07:22:03;23.10;99.90
12264;DHT22;6194;49.010;8.414;2023-08-24T07:24:29;23.10;99.90
12264;DHT22;6194;49.010;8.414;2023-08-24T07:26:55;23.30;99.90
12264;DHT22;6194;49.010;8.414;2023-08-24T07:29:21;23.60;99.90
12264;DHT22;6194;49.010;8.414;2023-08-24T07:31:47;23.70;99.90
12264;DHT22;6194;49.010;8.414;2023-08-24T07:34:13;23.80;99.90
12264;DHT22;6194;49.010;8.414;2023-08-24T07:36:39;23.80;99.90
12264;DHT22;6194;49.010;8.414;2023-08-24T07:39:05;24.00;99.90
12264;DHT22;6194;49.010;8.414;2023-08-24T07:41:30;24.30;99.90
12264;DHT22;6194;49.010;8.414;2023-08-24T07:43:56;24.50;99.90
12264;DHT22;6194;49.010;8.414;2023-08-24T07:46:22;24.70;99.90
12264;DHT22;6194;49.010;8.414;2023-08-24T07:48:47;24.90;99.90
12264;DHT22;6194;49.010;8.414;2023-08-24T07:51:14;25.10;99.90
12264;DHT22;6194;49.010;8.414;2023-08-24T07:53:39;25.30;99.90
12264;DHT22;6194;49.010;8.414;2023-08-24T07:56:05;25.70;99.90
12264;DHT22;6194;49.010;8.414;2023-08-24T07:58:30;25.90;99.90
12264;DHT22;6194;49.010;8.414;2023-08-24T08:00:59;26.20;99.90
12264;DHT22;6194;49.010;8.414;2023-08-24T08:03:25;26.20;99.90
12264;DHT22;6194;49.010;8.414;2023-08-24T08:05:51;26.00;99.90
12264;DHT22;6194;49.010;8.414;2023-08-24T08:08:17;26.00;99.90
12264;DHT22;6194;49.010;8.414;2023-08-24T08:10:42;25.90;99.90
12264;DHT22;6194;49.010;8.414;2023-08-24T08:13:09;25.70;99.90
12264;DHT22;6194;49.010;8.414;2023-08-24T08:15:37;25.50;99.90
12264;DHT22;6194;49.010;8.414;2023-08-24T08:18:06;25.60;99.90
12264;DHT22;6194;49.010;8.414;2023-08-24T08:20:32;25.50;99.90
12264;DHT22;6194;49.010;8.414;2023-08-24T08:22:58;25.40;99.90
12264;DHT22;6194;49.010;8.414;2023-08-24T08:25:23;25.30;99.90
12264;DHT22;6194;49.010;8.414;2023-08-24T08:27:49;25.30;99.90
12264;DHT22;6194;49.010;8.414;2023-08-24T08:30:15;25.40;99.90
12264;DHT22;6194;49.010;8.414;2023-08-24T08:32:41;25.40;99.90
12264;DHT22;6194;49.010;8.414;2023-08-24T08:35:08;25.60;99.90
12264;DHT22;6194;49.010;8.414;2023-08-24T08:37:33;25.70;99.90
12264;DHT22;6194;49.010;8.414;2023-08-24T08:39:59;25.90;99.90
12264;DHT22;6194;49.010;8.414;2023-08-24T08:42:25;26.10;99.90
12264;DHT22;6194;49.010;8.414;2023-08-24T08:44:51;26.10;99.90
12264;DHT22;6194;49.010;8.414;2023-08-24T08:47:20;26.10;99.90
12264;DHT22;6194;49.010;8.414;2023-08-24T08:49:48;26.20;99.90
12264;DHT22;6194;49.010;8.414;2023-08-24T08:52:14;26.20;99.90
12264;DHT22;6194;49.010;8.414;2023-08-24T08:54:39;26.20;99.90
12264;DHT22;6194;49.010;8.414;2023-08-24T08:57:06;26.20;99.90
12264;DHT22;6194;49.010;8.414;2023-08-24T08:59:32;26.20;99.90
12264;DHT22;6194;49.010;8.414;2023-08-24T09:02:02;26.20;99.90
12264;DHT22;6194;49.010;8.414;2023-08-24T09:04:32;26.20;99.90
12264;DHT22;6194;49.010;8.414;2023-08-24T09:06:59;26.30;99.90
12264;DHT22;6194;49.010;8.414;2023-08-24T09:09:30;26.30;99.90
12264;DHT22;6194;49.010;8.414;2023-08-24T09:11:56;26.40;99.90
12264;DHT22;6194;49.010;8.414;2023-08-24T09:14:22;26.60;99.90
12264;DHT22;6194;49.010;8.414;2023-08-24T09:16:47;26.60;99.90
12264;DHT22;6194;49.010;8.414;2023-08-24T09:19:14;26.60;99.90
12264;DHT22;6194;49.010;8.414;2023-08-24T09:21:40;26.70;99.90
12264;DHT22;6194;49.010;8.414;2023-08-24T09:24:07;26.70;99.90
12264;DHT22;6194;49.010;8.414;2023-08-24T09:26:35;27.00;99.90
12264;DHT22;6194;49.010;8.414;2023-08-24T09:29:11;27.20;99.90
12264;DHT22;6194;49.010;8.414;2023-08-24T09:31:39;27.60;99.90
12264;DHT22;6194;49.010;8.414;2023-08-24T09:34:05;27.70;99.90
12264;DHT22;6194;49.010;8.414;2023-08-24T09:36:35;27.70;99.90
12264;DHT22;6194;49.010;8.414;2023-08-24T09:39:02;27.80;99.90
12264;DHT22;6194;49.010;8.414;2023-08-24T09:41:48;27.90;99.90
12264;DHT22;6194;49.010;8.414;2023-08-24T09:44:13;28.00;99.90
12264;DHT22;6194;49.010;8.414;2023-08-24T09:46:40;28.10;99.90
12264;DHT22;6194;49.010;8.414;2023-08-24T09:49:07;28.30;99.90
12264;DHT22;6194;49.010;8.414;2023-08-24T09:51:40;28.70;99.90
12264;DHT22;6194;49.010;8.414;2023-08-24T09:54:08;28.70;99.90
12264;DHT22;6194;49.010;8.414;2023-08-24T09:56:36;28.70;99.90
12264;DHT22;6194;49.010;8.414;2023-08-24T09:59:17;28.60;99.90
12264;DHT22;6194;49.010;8.414;2023-08-24T10:01:50;28.80;99.90
12264;DHT22;6194;49.010;8.414;2023-08-24T10:04:24;29.20;99.90
12264;DHT22;6194;49.010;8.414;2023-08-24T10:06:58;29.50;99.90
12264;DHT22;6194;49.010;8.414;2023-08-24T10:09:35;29.40;99.90
12264;DHT22;6194;49.010;8.414;2023-08-24T10:12:04;29.60;99.90
12264;DHT22;6194;49.010;8.414;2023-08-24T10:17:15;29.40;99.90
12264;DHT22;6194;49.010;8.414;2023-08-24T10:19:42;29.60;99.90
12264;DHT22;6194;49.010;8.414;2023-08-24T10:22:09;29.80;99.90
12264;DHT22;6194;49.010;8.414;2023-08-24T10:24:35;30.10;99.90
12264;DHT22;6194;49.010;8.414;2023-08-24T10:27:02;30.00;99.90
12264;DHT22;6194;49.010;8.414;2023-08-24T10:29:29;29.90;99.90
12264;DHT22;6194;49.010;8.414;2023-08-24T10:31:55;29.90;99.90
12264;DHT22;6194;49.010;8.414;2023-08-24T10:34:22;29.80;99.90
12264;DHT22;6194;49.010;8.414;2023-08-24T10:36:48;29.90;99.90
12264;DHT22;6194;49.010;8.414;2023-08-24T10:39:14;30.00;99.90
12264;DHT22;6194;49.010;8.414;2023-08-24T10:41:51;30.10;99.90
12264;DHT22;6194;49.010;8.414;2023-08-24T10:44:36;30.10;99.90
12264;DHT22;6194;49.010;8.414;2023-08-24T10:47:22;30.30;99.90
12264;DHT22;6194;49.010;8.414;2023-08-24T10:52:24;30.30;99.90
12264;DHT22;6194;49.010;8.414;2023-08-24T10:54:51;30.30;99.90
12264;DHT22;6194;49.010;8.414;2023-08-24T10:57:31;30.50;99.90
12264;DHT22;6194;49.010;8.414;2023-08-24T11:02:51;30.40;99.90
12264;DHT22;6194;49.010;8.414;2023-08-24T11:05:29;30.60;99.90
12264;DHT22;6194;49.010;8.414;2023-08-24T11:07:58;30.80;99.90
12264;DHT22;6194;49.010;8.414;2023-08-24T11:10:30;30.90;99.90
12264;DHT22;6194;49.010;8.414;2023-08-24T11:13:05;30.80;99.90
12264;DHT22;6194;49.010;8.414;2023-08-24T11:18:19;31.00;99.90
12264;DHT22;6194;49.010;8.414;2023-08-24T11:20:47;31.10;99.90
12264;DHT22;6194;49.010;8.414;2023-08-24T11:23:15;31.20;99.90
12264;DHT22;6194;49.010;8.414;2023-08-24T11:25:41;31.00;99.90
12264;DHT22;6194;49.010;8.414;2023-08-24T11:28:07;31.10;99.90
12264;DHT22;6194;49.010;8.414;2023-08-24T11:30:33;31.20;99.90
12264;DHT22;6194;49.010;8.414;2023-08-24T11:33:00;31.30;99.90
12264;DHT22;6194;49.010;8.414;2023-08-24T11:35:26;31.40;99.90
12264;DHT22;6194;49.010;8.414;2023-08-24T11:37:53;31.60;99.90
12264;DHT22;6194;49.010;8.414;2023-08-24T11:40:18;31.80;99.90
12264;DHT22;6194;49.010;8.414;2023-08-24T11:42:46;32.00;99.90
12264;DHT22;6194;49.010;8.414;2023-08-24T11:45:12;32.30;99.90
12264;DHT22;6194;49.010;8.414;2023-08-24T11:47:38;32.20;99.90
12264;DHT22;6194;49.010;8.414;2023-08-24T11:50:04;32.30;99.90
12264;DHT22;6194;49.010;8.414;2023-08-24T11:52:30;32.40;99.90
12264;DHT22;6194;49.010;8.414;2023-08-24T11:55:01;32.40;99.90
12264;DHT22;6194;49.010;8.414;2023-08-24T11:57:26;32.70;99.90
12264;DHT22;6194;49.010;8.414;2023-08-24T11:59:54;32.90;99.90
12264;DHT22;6194;49.010;8.414;2023-08-24T12:02:20;33.20;99.90
12264;DHT22;6194;49.010;8.414;2023-08-24T12:04:48;33.10;99.90
12264;DHT22;6194;49.010;8.414;2023-08-24T12:07:15;33.50;99.90
12264;DHT22;6194;49.010;8.414;2023-08-24T12:09:41;33.70;99.90
12264;DHT22;6194;49.010;8.414;2023-08-24T12:12:16;33.50;99.90
12264;DHT22;6194;49.010;8.414;2023-08-24T12:14:46;33.60;99.90
12264;DHT22;6194;49.010;8.414;2023-08-24T12:17:13;34.20;99.90
12264;DHT22;6194;49.010;8.414;2023-08-24T12:19:55;34.00;99.90
12264;DHT22;6194;49.010;8.414;2023-08-24T12:22:21;34.10;99.90
12264;DHT22;6194;49.010;8.414;2023-08-24T12:24:47;34.00;99.90
12264;DHT22;6194;49.010;8.414;2023-08-24T12:27:27;34.40;99.90
12264;DHT22;6194;49.010;8.414;2023-08-24T12:29:53;34.60;99.90
12264;DHT22;6194;49.010;8.414;2023-08-24T12:32:20;34.30;99.90
12264;DHT22;6194;49.010;8.414;2023-08-24T12:34:48;34.10;99.90
12264;DHT22;6194;49.010;8.414;2023-08-24T12:37:14;34.30;99.90
12264;DHT22;6194;49.010;8.414;2023-08-24T12:39:40;34.30;99.90
12264;DHT22;6194;49.010;8.414;2023-08-24T12:42:06;34.10;99.90
12264;DHT22;6194;49.010;8.414;2023-08-24T12:44:32;34.00;99.90
12264;DHT22;6194;49.010;8.414;2023-08-24T12:46:58;34.00;99.90
12264;DHT22;6194;49.010;8.414;2023-08-24T12:49:24;34.10;99.90
12264;DHT22;6194;49.010;8.414;2023-08-24T12:51:50;34.00;99.90
12264;DHT22;6194;49.010;8.414;2023-08-24T12:54:15;33.90;99.90
12264;DHT22;6194;49.010;8.414;2023-08-24T12:56:41;34.00;99.90
12264;DHT22;6194;49.010;8.414;2023-08-24T12:59:07;34.20;99.90
12264;DHT22;6194;49.010;8.414;2023-08-24T13:01:33;34.60;99.90
12264;DHT22;6194;49.010;8.414;2023-08-24T13:03:58;34.60;99.90
12264;DHT22;6194;49.010;8.414;2023-08-24T13:06:24;35.00;99.90
12264;DHT22;6194;49.010;8.414;2023-08-24T13:08:50;35.10;99.90
12264;DHT22;6194;49.010;8.414;2023-08-24T13:11:16;34.80;99.90
12264;DHT22;6194;49.010;8.414;2023-08-24T13:13:41;34.40;99.90
12264;DHT22;6194;49.010;8.414;2023-08-24T13:16:07;34.20;99.90
12264;DHT22;6194;49.010;8.414;2023-08-24T13:18:33;34.20;99.90
12264;DHT22;6194;49.010;8.414;2023-08-24T13:20:58;34.00;99.90
12264;DHT22;6194;49.010;8.414;2023-08-24T13:23:24;34.00;99.90
12264;DHT22;6194;49.010;8.414;2023-08-24T13:25:50;33.80;99.90
12264;DHT22;6194;49.010;8.414;2023-08-24T13:28:16;34.00;99.90
12264;DHT22;6194;49.010;8.414;2023-08-24T13:30:41;33.90;99.90
12264;DHT22;6194;49.010;8.414;2023-08-24T13:33:08;34.10;99.90
12264;DHT22;6194;49.010;8.414;2023-08-24T13:35:34;34.20;99.90
12264;DHT22;6194;49.010;8.414;2023-08-24T13:38:00;34.20;99.90
12264;DHT22;6194;49.010;8.414;2023-08-24T13:40:25;34.50;99.90
12264;DHT22;6194;49.010;8.414;2023-08-24T13:42:51;34.80;99.90
12264;DHT22;6194;49.010;8.414;2023-08-24T13:45:16;35.10;99.90
12264;DHT22;6194;49.010;8.414;2023-08-24T13:47:42;35.20;99.90
12264;DHT22;6194;49.010;8.414;2023-08-24T13:50:08;35.10;99.90
12264;DHT22;6194;49.010;8.414;2023-08-24T13:52:34;34.70;99.90
12264;DHT22;6194;49.010;8.414;2023-08-24T13:54:59;34.30;99.90
12264;DHT22;6194;49.010;8.414;2023-08-24T13:57:28;34.00;99.90
12264;DHT22;6194;49.010;8.414;2023-08-24T13:59:54;33.80;99.90
12264;DHT22;6194;49.010;8.414;2023-08-24T14:02:19;33.60;99.90
12264;DHT22;6194;49.010;8.414;2023-08-24T14:04:45;33.30;99.90
12264;DHT22;6194;49.010;8.414;2023-08-24T14:07:11;32.40;99.90
12264;DHT22;6194;49.010;8.414;2023-08-24T14:09:37;31.40;99.90
12264;DHT22;6194;49.010;8.414;2023-08-24T14:12:03;31.10;99.90
12264;DHT22;6194;49.010;8.414;2023-08-24T14:14:28;31.20;99.90
12264;DHT22;6194;49.010;8.414;2023-08-24T14:16:55;31.30;99.90
12264;DHT22;6194;49.010;8.414;2023-08-24T14:19:21;31.00;99.90
12264;DHT22;6194;49.010;8.414;2023-08-24T14:21:47;29.80;99.90
12264;DHT22;6194;49.010;8.414;2023-08-24T14:24:12;27.90;99.90
12264;DHT22;6194;49.010;8.414;2023-08-24T14:26:38;25.90;99.90
12264;DHT22;6194;49.010;8.414;2023-08-24T14:29:05;24.50;99.90
12264;DHT22;6194;49.010;8.414;2023-08-24T14:31:30;23.90;99.90
12264;DHT22;6194;49.010;8.414;2023-08-24T14:33:56;23.50;99.90
12264;DHT22;6194;49.010;8.414;2023-08-24T14:36:23;23.30;99.90
12264;DHT22;6194;49.010;8.414;2023-08-24T14:38:50;23.30;99.90
12264;DHT22;6194;49.010;8.414;2023-08-24T14:41:17;23.40;99.90
12264;DHT22;6194;49.010;8.414;2023-08-24T14:43:43;23.50;99.90
12264;DHT22;6194;49.010;8.414;2023-08-24T14:46:09;23.50;99.90
12264;DHT22;6194;49.010;8.414;2023-08-24T14:48:35;23.50;99.90
12264;DHT22;6194;49.010;8.414;2023-08-24T14:51:01;23.70;99.90
12264;DHT22;6194;49.010;8.414;2023-08-24T14:53:27;23.60;99.90
12264;DHT22;6194;49.010;8.414;2023-08-24T14:55:55;23.70;99.90
12264;DHT22;6194;49.010;8.414;2023-08-24T14:58:21;23.80;99.90
12264;DHT22;6194;49.010;8.414;2023-08-24T15:00:49;23.80;99.90
12264;DHT22;6194;49.010;8.414;2023-08-24T15:03:15;23.90;99.90
12264;DHT22;6194;49.010;8.414;2023-08-24T15:05:55;24.10;99.90
12264;DHT22;6194;49.010;8.414;2023-08-24T15:08:20;24.20;99.90
12264;DHT22;6194;49.010;8.414;2023-08-24T15:10:48;24.50;99.90
12264;DHT22;6194;49.010;8.414;2023-08-24T15:13:14;24.80;99.90
12264;DHT22;6194;49.010;8.414;2023-08-24T15:15:39;25.00;99.90
12264;DHT22;6194;49.010;8.414;2023-08-24T15:18:05;25.30;99.90
12264;DHT22;6194;49.010;8.414;2023-08-24T15:20:31;25.50;99.90
12264;DHT22;6194;49.010;8.414;2023-08-24T15:22:58;25.80;99.90
12264;DHT22;6194;49.010;8.414;2023-08-24T15:25:24;26.20;99.90
12264;DHT22;6194;49.010;8.414;2023-08-24T15:27:50;26.20;99.90
12264;DHT22;6194;49.010;8.414;2023-08-24T15:30:15;26.40;99.90
12264;DHT22;6194;49.010;8.414;2023-08-24T15:32:41;26.60;99.90
12264;DHT22;6194;49.010;8.414;2023-08-24T15:35:07;26.80;99.90
12264;DHT22;6194;49.010;8.414;2023-08-24T15:37:32;27.00;99.90
12264;DHT22;6194;49.010;8.414;2023-08-24T15:39:58;27.00;99.90
12264;DHT22;6194;49.010;8.414;2023-08-24T15:42:24;27.10;99.90
12264;DHT22;6194;49.010;8.414;2023-08-24T15:44:50;27.10;99.90
12264;DHT22;6194;49.010;8.414;2023-08-24T15:47:15;27.00;99.90
12264;DHT22;6194;49.010;8.414;2023-08-24T15:49:41;27.10;99.90
12264;DHT22;6194;49.010;8.414;2023-08-24T15:52:07;27.20;99.90
12264;DHT22;6194;49.010;8.414;2023-08-24T15:54:32;27.40;99.90
12264;DHT22;6194;49.010;8.414;2023-08-24T15:56:58;27.50;99.90